Time;durP1;ratioP1;P1;durP2;ratioP2;P2;SDS_P1;SDS_P2;PMS_P1;PMS_P2;Temp;Humidity;BMP_temperature;BMP_pressure;BME280_temperature;BME280_humidity;BME280_pressure;Samples;Min_cycle;Max_cycle;Signal;HPM_P1;HPM_P2
2022/10/21 00:13:32;;;;;;;14.10;7.60;;;;;;;5.50;85.18;101116.77;638539;1301;139642;-79
2022/10/21 00:28:35;;;;;;;16.70;8.30;;;;;;;5.45;85.13;101103.86;637560;1307;138866;-78
2022/10/21 00:43:59;;;;;;;13.40;7.90;;;;;;;5.40;86.42;101085.70;638796;1313;139016;-80
2022/10/21 00:59:04;;;;;;;19.20;9.20;;;;;;;5.44;87.15;101067.44;638670;1310;139567;-79
2022/10/21 01:14:28;;;;;;;19.30;10.00;;;;;;;5.44;86.70;101036.60;638427;1313;138374;-79
2022/10/21 01:30:01;;;;;;;19.70;10.00;;;;;;;5.47;86.83;101000.99;638147;1312;140033;-79
2022/10/21 01:45:23;;;;;;;18.10;9.90;;;;;;;5.44;87.10;100963.35;638658;1309;139309;-80
2022/10/21 02:00:28;;;;;;;25.50;11.70;;;;;;;5.40;86.44;100925.58;638231;1310;142308;-80
2022/10/21 02:15:33;;;;;;;22.40;10.10;;;;;;;5.34;86.79;100908.39;638471;1313;139140;-80
2022/10/21 02:30:47;;;;;;;16.20;9.90;;;;;;;5.35;87.51;100911.10;637725;1299;139873;-79
2022/10/21 02:45:57;;;;;;;12.30;7.70;;;;;;;5.21;87.22;100910.17;638585;1308;138867;-79
2022/10/21 03:01:01;;;;;;;20.00;9.90;;;;;;;5.09;87.33;100875.44;639693;1313;139045;-79
2022/10/21 03:16:05;;;;;;;24.20;10.20;;;;;;;5.09;87.41;100848.39;640107;1313;140279;-80
2022/10/21 03:31:08;;;;;;;17.70;9.40;;;;;;;5.12;88.17;100853.46;642557;1313;139003;-78
2022/10/21 03:46:11;;;;;;;16.60;8.30;;;;;;;5.11;88.20;100858.02;645155;1308;140103;-79
2022/10/21 04:01:14;;;;;;;18.20;9.80;;;;;;;5.07;88.66;100832.56;641571;1307;138774;-78
2022/10/21 04:16:20;;;;;;;22.60;10.60;;;;;;;5.10;89.23;100807.60;639565;1313;139227;-79
2022/10/21 04:31:24;;;;;;;16.90;9.80;;;;;;;5.15;90.07;100787.36;641954;1313;141122;-78
2022/10/21 04:46:33;;;;;;;19.80;11.80;;;;;;;5.24;89.61;100750.98;638623;1313;139124;-77
2022/10/21 05:01:36;;;;;;;18.30;10.10;;;;;;;5.30;90.34;100726.35;639024;1314;139441;-80
2022/10/21 05:16:39;;;;;;;21.80;10.40;;;;;;;5.39;90.19;100729.63;638616;1304;139290;-78
2022/10/21 05:31:43;;;;;;;50.50;25.70;;;;;;;5.46;89.17;100722.12;639003;1305;139824;-80
2022/10/21 05:46:47;;;;;;;22.70;13.60;;;;;;;5.44;89.35;100706.41;638796;1308;138935;-80
2022/10/21 06:01:51;;;;;;;41.60;26.60;;;;;;;5.47;89.90;100675.17;637065;1307;1419078;-80
2022/10/21 06:16:54;;;;;;;56.60;29.40;;;;;;;5.67;89.37;100671.91;638414;1314;139098;-79
2022/10/21 06:31:58;;;;;;;28.10;17.00;;;;;;;5.85;89.69;100659.37;639114;1299;141896;-79
2022/10/21 06:47:01;;;;;;;40.90;19.80;;;;;;;6.04;90.15;100658.00;646100;1299;139468;-79
2022/10/21 07:02:05;;;;;;;41.00;19.30;;;;;;;6.31;88.87;100652.48;640009;1300;140249;-80
2022/10/21 07:17:08;;;;;;;156.40;50.10;;;;;;;6.48;89.09;100636.30;638663;1305;139880;-80
2022/10/21 07:32:11;;;;;;;204.60;71.90;;;;;;;6.73;88.31;100631.39;637433;1298;139198;-79
2022/10/21 07:47:15;;;;;;;80.60;29.80;;;;;;;6.87;87.91;100617.76;638397;1308;139186;-80
2022/10/21 08:02:19;;;;;;;66.90;24.70;;;;;;;7.13;87.80;100598.07;638019;1290;138970;-79
2022/10/21 08:17:22;;;;;;;108.20;51.00;;;;;;;7.54;88.09;100581.15;637580;1308;139401;-80
2022/10/21 08:32:25;;;;;;;52.80;20.90;;;;;;;7.86;88.10;100560.42;644614;1307;139665;-79
2022/10/21 08:47:44;;;;;;;39.30;18.60;;;;;;;8.16;87.24;100560.52;637138;1313;140052;-79
2022/10/21 09:03:12;;;;;;;66.80;26.40;;;;;;;8.41;86.50;100542.48;637727;1307;139788;-80
2022/10/21 09:18:43;;;;;;;43.80;17.80;;;;;;;8.78;85.54;100514.95;638240;1291;141553;-81
2022/10/21 09:33:58;;;;;;;31.20;16.80;;;;;;;9.02;84.50;100490.15;637619;1291;139086;-81
2022/10/21 09:49:01;;;;;;;52.40;22.10;;;;;;;9.17;84.06;100480.95;638053;1313;140014;-80
2022/10/21 10:04:30;;;;;;;47.70;23.30;;;;;;;9.85;83.62;100471.94;638240;1299;139265;-80
2022/10/21 10:19:34;;;;;;;46.40;21.80;;;;;;;10.50;81.99;100465.08;637439;1313;139035;-81
2022/10/21 10:34:56;;;;;;;65.60;25.20;;;;;;;10.61;81.63;100469.19;637569;1307;139895;-80
2022/10/21 10:49:59;;;;;;;59.30;23.20;;;;;;;10.62;81.78;100460.08;637342;1300;140689;-80
2022/10/21 11:05:32;;;;;;;56.60;24.90;;;;;;;10.89;82.06;100439.89;639515;1299;140044;-80
2022/10/21 11:20:47;;;;;;;35.40;19.80;;;;;;;11.20;83.18;100419.48;644110;1305;141073;-77
2022/10/21 11:36:19;;;;;;;78.40;37.80;;;;;;;11.45;81.16;100399.62;640264;1299;139601;-81
2022/10/21 11:51:55;;;;;;;56.80;28.00;;;;;;;11.46;78.94;100383.11;638608;1305;139663;-80
2022/10/21 12:07:28;;;;;;;22.30;12.90;;;;;;;11.55;78.99;100376.27;638922;1313;139724;-81
2022/10/21 12:22:33;;;;;;;22.40;13.60;;;;;;;11.59;79.43;100359.13;641654;1305;141334;-80
2022/10/21 12:37:43;;;;;;;25.40;16.70;;;;;;;11.52;78.28;100347.68;638559;1304;140085;-81
2022/10/21 12:53:20;;;;;;;44.60;24.80;;;;;;;11.55;78.30;100356.48;639472;1299;140238;-79
2022/10/21 13:08:28;;;;;;;103.60;37.50;;;;;;;11.78;78.61;100350.04;639479;1306;140257;-79
2022/10/21 13:23:36;;;;;;;31.20;17.90;;;;;;;11.66;78.69;100335.00;639463;1308;139972;-80
2022/10/21 13:38:54;;;;;;;100.60;35.90;;;;;;;11.54;78.85;100331.40;639009;1302;140461;-80
2022/10/21 13:54:10;;;;;;;44.80;20.70;;;;;;;11.49;79.61;100310.96;638723;1302;140410;-80
2022/10/21 14:09:27;;;;;;;57.10;26.80;;;;;;;11.41;80.69;100307.81;641415;1305;139846;-79
2022/10/21 14:24:35;;;;;;;45.60;21.20;;;;;;;11.49;81.39;100284.86;638950;1306;140380;-80
2022/10/21 14:39:39;;;;;;;59.20;26.00;;;;;;;11.58;81.84;100287.80;639491;1303;139697;-79
2022/10/21 14:54:47;;;;;;;102.00;40.00;;;;;;;11.60;82.49;100286.14;641371;1313;140278;-80
2022/10/21 15:10:02;;;;;;;140.00;57.80;;;;;;;11.41;83.03;100278.39;640196;1311;141067;-79
2022/10/21 15:25:13;;;;;;;109.90;49.90;;;;;;;11.28;83.80;100278.23;639372;1305;140258;-80
2022/10/21 15:40:19;;;;;;;105.70;43.00;;;;;;;11.18;84.59;100270.34;638869;1301;139845;-80
2022/10/21 15:55:22;;;;;;;69.60;35.20;;;;;;;11.12;85.34;100271.23;639365;1299;140299;-80
2022/10/21 16:10:35;;;;;;;57.70;33.30;;;;;;;11.00;86.13;100267.83;638936;1305;139945;-78
2022/10/21 16:25:40;;;;;;;49.40;26.10;;;;;;;10.92;87.28;100254.67;642449;1297;140387;-79
2022/10/21 16:40:43;;;;;;;55.40;27.20;;;;;;;10.82;88.16;100251.73;640319;1298;141808;-79
2022/10/21 16:55:47;;;;;;;48.70;21.80;;;;;;;10.77;88.74;100266.88;640429;1307;140308;-81
2022/10/21 17:10:50;;;;;;;41.00;23.30;;;;;;;10.81;88.92;100269.25;642666;1292;139082;-81
2022/10/21 17:25:55;;;;;;;25.80;16.00;;;;;;;10.90;89.50;100264.50;641909;1307;140687;-80
2022/10/21 17:40:58;;;;;;;67.70;32.20;;;;;;;10.86;89.30;100250.85;639793;1313;143041;-80
2022/10/21 17:56:06;;;;;;;30.70;16.20;;;;;;;10.75;90.34;100233.45;640112;1306;1102568;-80
2022/10/21 18:11:14;;;;;;;78.80;37.60;;;;;;;10.68;90.47;100194.73;641763;1299;141318;-79
2022/10/21 18:26:24;;;;;;;42.40;21.80;;;;;;;10.66;90.90;100168.20;642290;1305;140037;-79
2022/10/21 18:41:28;;;;;;;32.20;16.90;;;;;;;10.54;91.61;100150.14;641460;1298;139709;-80
2022/10/21 18:56:32;;;;;;;45.20;22.90;;;;;;;10.46;91.54;100144.17;641956;1305;140262;-80
2022/10/21 19:11:36;;;;;;;31.10;18.30;;;;;;;10.36;91.66;100143.70;643902;1307;140603;-80
2022/10/21 19:26:41;;;;;;;31.60;17.00;;;;;;;10.22;92.57;100131.44;643144;1299;140306;-80
2022/10/21 19:41:45;;;;;;;35.40;19.60;;;;;;;10.11;92.73;100124.58;641941;1307;141233;-80
2022/10/21 19:56:51;;;;;;;37.80;21.40;;;;;;;10.07;93.13;100119.86;642977;1301;139454;-80
2022/10/21 20:11:55;;;;;;;36.80;20.40;;;;;;;9.99;93.81;100127.40;643751;1288;140097;-79
2022/10/21 20:26:58;;;;;;;39.60;20.40;;;;;;;9.87;95.52;100122.45;645681;1313;139940;-80
2022/10/21 20:42:04;;;;;;;45.10;24.90;;;;;;;9.94;95.44;100118.02;642901;1294;139910;-80
2022/10/21 20:57:07;;;;;;;34.60;18.90;;;;;;;9.99;95.78;100107.83;644286;1295;139062;-80
2022/10/21 21:12:10;;;;;;;33.70;17.90;;;;;;;9.93;96.18;100101.46;642611;1297;139874;-80
2022/10/21 21:27:14;;;;;;;32.40;17.00;;;;;;;9.93;96.29;100102.75;642479;1305;140476;-80
2022/10/21 21:42:17;;;;;;;28.60;16.90;;;;;;;9.92;96.66;100099.36;643576;1295;140150;-80
2022/10/21 21:57:20;;;;;;;35.50;19.80;;;;;;;9.92;96.20;100086.11;642365;1311;139635;-79
2022/10/21 22:12:30;;;;;;;27.80;13.90;;;;;;;9.95;96.29;100065.70;644211;1295;140281;-79
2022/10/21 22:27:33;;;;;;;28.70;14.50;;;;;;;9.94;96.77;100053.69;641863;1312;140229;-79
2022/10/21 22:42:36;;;;;;;29.30;15.60;;;;;;;9.96;97.42;100037.70;643914;1304;139501;-78
2022/10/21 22:57:39;;;;;;;25.40;14.60;;;;;;;9.96;97.37;100021.88;644409;1298;140660;-79
2022/10/21 23:12:43;;;;;;;27.70;15.70;;;;;;;9.98;97.87;100010.20;642229;1304;139881;-79
2022/10/21 23:27:46;;;;;;;29.00;16.20;;;;;;;10.03;98.61;100012.25;643638;1304;138958;-79
2022/10/21 23:42:49;;;;;;;42.60;19.60;;;;;;;10.10;98.62;100007.06;643184;1305;140108;-79
2022/10/21 23:57:52;;;;;;;34.70;17.60;;;;;;;10.18;98.66;99995.52;641920;1303;139750;-79
